Startpagina
METAR-TAF:

METAR-TAF

Vliegvelden :

Productieplatform

Awg-1, Nederland

breedte: 53-29-30N, lengte: 5-56-30E, hoogte: 33 m

Actueel weer

Dit bericht is 38 minuten geleden gemaakt, om 06:25 UTC
Wind 20 kt uit het westzuidwesten
Temperatuur 15°C
Vochtigheid 67%
Druk 1014 hPa
Zicht 10 km of meer
Weinig wolken op 3100 ft
Verspreide wolken op 3500 ft

METAR: EHMA 220625Z AUTO 25020KT 9999 FEW031 SCT035 15/09 Q1014 W///H///

Tijdstip: 09:03 (07:03 UTC)


TAF: ontbreekt

Waarnemingen en weersverwachtingen van meer dan 4000 vliegvelden (METAR en TAF).

De beschikbare stations zijn de gele en rode punten op de kaart.

Ga met uw muis naar het station om de naam te zien.

Klik dan om waarnemingen en weersverwachtingen te zien.

kaart wijzigen: klik op de groene knoppen met een zwart kruis om in te zoomen, op de groene knop met een streepje om uit te zoomen of op de groene pijlen voor aangrenzende kaarten.


METAR-TAF: